Time;durP1;ratioP1;P1;durP2;ratioP2;P2;SDS_P1;SDS_P2;PMS_P1;PMS_P2;Temp;Humidity;BMP_temperature;BMP_pressure;BME280_temperature;BME280_humidity;BME280_pressure;Samples;Min_cycle;Max_cycle;Signal;HPM_P1;HPM_P2
2023/05/29 00:00:11;;;;;;;1.50;0.50;;;;;;;9.01;100.00;100035.95;105307;1260;60492;-47
2023/05/29 00:02:44;;;;;;;0.80;0.40;;;;;;;8.97;100.00;100033.02;105431;1260;60402;-49
2023/05/29 00:05:12;;;;;;;2.40;0.50;;;;;;;8.98;100.00;100033.70;105542;1260;72909;-48
2023/05/29 00:07:40;;;;;;;2.00;0.40;;;;;;;8.98;100.00;100033.35;105483;1260;65726;-48
2023/05/29 00:10:08;;;;;;;0.50;0.30;;;;;;;8.99;100.00;100032.06;105372;1254;72984;-48
2023/05/29 00:12:36;;;;;;;0.80;0.30;;;;;;;9.00;100.00;100033.64;105717;1260;60427;-49
2023/05/29 00:15:04;;;;;;;2.90;0.40;;;;;;;8.99;100.00;100037.61;105609;1253;62190;-49
2023/05/29 00:17:32;;;;;;;2.40;0.40;;;;;;;8.96;100.00;100033.60;105502;1256;74178;-49
2023/05/29 00:20:01;;;;;;;0.90;0.50;;;;;;;8.94;100.00;100035.27;105747;1257;68788;-49
2023/05/29 00:22:28;;;;;;;0.60;0.50;;;;;;;8.91;100.00;100036.11;106623;1253;74068;-50
2023/05/29 00:24:56;;;;;;;2.00;0.50;;;;;;;8.90;100.00;100043.86;105564;1257;60626;-48
2023/05/29 00:27:23;;;;;;;1.80;0.50;;;;;;;8.85;100.00;100042.42;105520;1251;60607;-48
2023/05/29 00:29:50;;;;;;;2.40;0.50;;;;;;;8.78;100.00;100039.11;105418;1251;72892;-48
2023/05/29 00:32:18;;;;;;;1.30;0.60;;;;;;;8.68;100.00;100035.52;105354;1257;67174;-48
2023/05/29 00:34:45;;;;;;;1.10;0.50;;;;;;;8.56;100.00;100032.03;105351;1256;70958;-49
2023/05/29 00:37:13;;;;;;;1.90;0.40;;;;;;;8.43;100.00;100030.35;105947;1254;60476;-48
2023/05/29 00:39:40;;;;;;;1.30;0.40;;;;;;;8.32;100.00;100029.30;105221;1257;62653;-49
2023/05/29 00:42:07;;;;;;;3.10;0.40;;;;;;;8.26;100.00;100030.20;105311;1257;76351;-48
2023/05/29 00:44:36;;;;;;;0.60;0.40;;;;;;;8.28;100.00;100030.27;105247;1262;66118;-49
2023/05/29 00:47:03;;;;;;;0.70;0.50;;;;;;;8.32;100.00;100030.38;105393;1257;72648;-48
2023/05/29 00:49:30;;;;;;;0.90;0.40;;;;;;;8.31;100.00;100031.13;105291;1257;60504;-48
2023/05/29 00:51:58;;;;;;;0.70;0.60;;;;;;;8.30;100.00;100028.80;105478;1251;60961;-49
2023/05/29 00:54:29;;;;;;;0.70;0.40;;;;;;;8.30;100.00;100026.84;105452;1259;75225;-49
2023/05/29 00:56:57;;;;;;;2.50;0.70;;;;;;;8.31;100.00;100027.54;106045;1257;67481;-48
2023/05/29 00:59:26;;;;;;;0.90;0.50;;;;;;;8.32;100.00;100026.09;105127;1255;72637;-48
2023/05/29 01:01:54;;;;;;;1.60;0.60;;;;;;;8.31;100.00;100027.52;105018;1266;60428;-48
2023/05/29 01:04:23;;;;;;;2.80;0.50;;;;;;;8.30;100.00;100031.48;105464;1259;60658;-48
2023/05/29 01:06:51;;;;;;;1.20;0.50;;;;;;;8.28;100.00;100035.48;105058;1260;73008;-48
2023/05/29 01:09:18;;;;;;;1.30;0.50;;;;;;;8.24;100.00;100036.88;105428;1257;67660;-49
2023/05/29 01:12:02;;;;;;;1.20;0.50;;;;;;;8.18;100.00;100037.42;105606;1256;71646;-49
2023/05/29 01:14:41;;;;;;;0.90;0.60;;;;;;;8.11;100.00;100039.47;106083;1259;60632;-49
2023/05/29 01:17:56;;;;;;;1.10;0.60;;;;;;;8.06;100.00;100041.63;105556;1252;60630;-48
2023/05/29 01:20:44;;;;;;;2.20;0.60;;;;;;;8.06;100.00;100037.86;105760;1251;73318;-49
2023/05/29 01:23:27;;;;;;;1.10;0.50;;;;;;;8.09;100.00;100040.08;106917;1257;66212;-48
2023/05/29 01:25:59;;;;;;;0.50;0.50;;;;;;;8.14;100.00;100045.46;105565;1257;72474;-49
2023/05/29 01:28:29;;;;;;;1.00;0.60;;;;;;;8.18;100.00;100049.58;105517;1264;60453;-48
2023/05/29 01:31:09;;;;;;;0.90;0.60;;;;;;;8.23;100.00;100052.48;105654;1261;61182;-49
2023/05/29 01:33:40;;;;;;;1.40;0.70;;;;;;;8.23;100.00;100052.11;105425;1260;76109;-48
2023/05/29 01:36:08;;;;;;;1.40;0.60;;;;;;;8.24;100.00;100053.70;105846;1257;70343;-47
2023/05/29 01:38:36;;;;;;;2.80;0.80;;;;;;;8.25;100.00;100054.72;105725;1257;75977;-47
2023/05/29 01:41:03;;;;;;;2.90;0.90;;;;;;;8.23;100.00;100055.70;105571;1260;60585;-46
2023/05/29 01:43:32;;;;;;;1.70;0.70;;;;;;;8.18;100.00;100054.42;106036;1257;60431;-47
2023/05/29 01:45:59;;;;;;;3.80;1.00;;;;;;;8.08;100.00;100053.89;105340;1262;73819;-46
2023/05/29 01:48:27;;;;;;;4.10;1.00;;;;;;;7.96;100.00;100055.34;105336;1257;69844;-46
2023/05/29 01:50:56;;;;;;;2.50;0.70;;;;;;;7.86;100.00;100060.31;109249;1254;72591;-47
2023/05/29 01:53:24;;;;;;;3.20;0.80;;;;;;;7.77;100.00;100060.06;109383;1251;58426;-47
2023/05/29 01:55:52;;;;;;;0.80;0.60;;;;;;;7.68;100.00;100065.02;109017;1254;59133;-47
2023/05/29 01:58:20;;;;;;;1.90;0.60;;;;;;;7.61;100.00;100062.00;108588;1254;75897;-45
2023/05/29 02:00:48;;;;;;;2.30;0.60;;;;;;;7.57;100.00;100065.52;105451;1251;68160;-46
2023/05/29 02:03:15;;;;;;;1.10;0.60;;;;;;;7.53;100.00;100064.03;109215;1251;72333;-47
2023/05/29 02:05:43;;;;;;;1.60;0.60;;;;;;;7.52;100.00;100069.95;109252;1251;60162;-46
2023/05/29 02:08:11;;;;;;;1.20;0.90;;;;;;;7.51;100.00;100070.52;109292;1251;59460;-47
2023/05/29 02:10:39;;;;;;;0.80;0.60;;;;;;;7.52;100.00;100074.08;109300;1251;74096;-47
2023/05/29 02:13:06;;;;;;;2.20;0.70;;;;;;;7.54;100.00;100076.86;109160;1251;68756;-47
2023/05/29 02:15:33;;;;;;;0.90;0.70;;;;;;;7.56;100.00;100077.88;109273;1254;71601;-47
2023/05/29 02:18:01;;;;;;;4.50;0.70;;;;;;;7.55;100.00;100079.17;109185;1251;60224;-47
2023/05/29 02:20:29;;;;;;;0.80;0.60;;;;;;;7.54;100.00;100077.61;109176;1251;59281;-47
2023/05/29 02:22:58;;;;;;;1.30;0.70;;;;;;;7.52;100.00;100082.30;109307;1251;73024;-47
2023/05/29 02:25:25;;;;;;;0.70;0.60;;;;;;;7.47;100.00;100085.67;109328;1251;67999;-47
2023/05/29 02:27:52;;;;;;;2.50;0.70;;;;;;;7.45;100.00;100083.20;109286;1256;71925;-47
2023/05/29 02:30:20;;;;;;;1.30;0.60;;;;;;;7.48;100.00;100084.77;109201;1254;59557;-47
2023/05/29 02:35:10;;;;;;;6.60;0.70;;;;;;;7.53;100.00;100072.25;102381;1294;600597;-46
2023/05/29 02:37:37;;;;;;;1.30;0.60;;;;;;;7.51;100.00;100075.34;104596;1270;61663;-46
2023/05/29 02:40:09;;;;;;;1.00;0.70;;;;;;;7.53;100.00;100074.41;104680;1270;59371;-47
2023/05/29 02:42:38;;;;;;;1.00;0.90;;;;;;;7.60;100.00;100072.58;105261;1267;71214;-46
2023/05/29 02:45:05;;;;;;;2.80;0.70;;;;;;;7.65;100.00;100070.81;104657;1267;69087;-46
2023/05/29 02:47:33;;;;;;;1.00;0.70;;;;;;;7.69;100.00;100071.95;104978;1273;72460;-47
2023/05/29 02:50:01;;;;;;;1.00;0.60;;;;;;;7.72;100.00;100069.35;104728;1270;222498;-44
2023/05/29 02:52:30;;;;;;;2.80;0.80;;;;;;;7.74;100.00;100068.55;105338;1266;60639;-46
2023/05/29 02:54:58;;;;;;;5.20;0.90;;;;;;;7.73;100.00;100066.83;104868;1264;72028;-46
2023/05/29 02:57:26;;;;;;;1.80;0.80;;;;;;;7.69;100.00;100068.02;105351;1267;67104;-46
2023/05/29 02:59:53;;;;;;;2.00;0.80;;;;;;;7.66;100.00;100067.95;104868;1264;72486;-47
2023/05/29 03:02:20;;;;;;;1.00;0.60;;;;;;;7.67;100.00;100072.55;104694;1269;59624;-46
2023/05/29 03:04:52;;;;;;;4.10;0.70;;;;;;;7.73;100.00;100068.24;104873;1263;59960;-47
2023/05/29 03:07:19;;;;;;;0.80;0.60;;;;;;;7.81;100.00;100065.48;105018;1264;71889;-45
2023/05/29 03:09:47;;;;;;;1.60;0.60;;;;;;;7.85;100.00;100062.47;104971;1264;66867;-46
2023/05/29 03:12:14;;;;;;;3.40;0.60;;;;;;;7.87;100.00;100071.37;104521;1263;72140;-45
2023/05/29 03:14:42;;;;;;;3.20;0.50;;;;;;;7.90;100.00;100074.48;105130;1264;61732;-46
2023/05/29 03:17:12;;;;;;;1.30;0.70;;;;;;;7.97;100.00;100074.23;104496;1266;59710;-46
2023/05/29 03:19:39;;;;;;;1.40;0.70;;;;;;;8.05;100.00;100075.97;105006;1264;71184;-46
2023/05/29 03:22:07;;;;;;;1.70;0.60;;;;;;;8.08;100.00;100072.80;104504;1264;67223;-45
2023/05/29 03:24:35;;;;;;;1.00;0.70;;;;;;;8.15;100.00;100077.59;105234;1272;72805;-46
2023/05/29 03:27:03;;;;;;;2.00;0.90;;;;;;;8.21;100.00;100077.73;104605;1263;59746;-46
2023/05/29 03:29:34;;;;;;;1.60;0.60;;;;;;;8.27;100.00;100080.73;104786;1267;59609;-46
2023/05/29 03:32:02;;;;;;;2.80;0.70;;;;;;;8.36;100.00;100080.12;104619;1264;72700;-46
2023/05/29 03:34:31;;;;;;;0.80;0.60;;;;;;;8.46;100.00;100086.94;105344;1266;67546;-46
2023/05/29 03:37:01;;;;;;;3.20;0.70;;;;;;;8.57;100.00;100086.71;105001;1266;72421;-47
2023/05/29 03:39:29;;;;;;;2.50;0.70;;;;;;;8.68;100.00;100084.71;104596;1267;60790;-46
2023/05/29 03:41:58;;;;;;;1.70;0.70;;;;;;;8.80;100.00;100089.31;104864;1268;60120;-46
2023/05/29 03:44:25;;;;;;;1.10;0.70;;;;;;;8.89;100.00;100085.96;104581;1265;72034;-47
2023/05/29 03:46:52;;;;;;;2.50;0.70;;;;;;;8.96;100.00;100085.16;104483;1272;67219;-47
2023/05/29 03:49:20;;;;;;;2.50;0.70;;;;;;;9.06;100.00;100088.53;104931;1267;73172;-47
2023/05/29 03:51:49;;;;;;;1.70;0.60;;;;;;;9.18;100.00;100090.26;104600;1270;61290;-46
2023/05/29 03:54:16;;;;;;;2.30;0.60;;;;;;;9.31;100.00;100087.26;104441;1272;59975;-47
2023/05/29 03:56:44;;;;;;;5.40;1.30;;;;;;;9.44;100.00;100091.23;104663;1266;73026;-47
2023/05/29 03:59:12;;;;;;;2.00;0.70;;;;;;;9.59;100.00;100091.75;104534;1267;67715;-47
2023/05/29 04:01:39;;;;;;;2.20;0.80;;;;;;;9.72;100.00;100093.19;104479;1267;71070;-48
2023/05/29 04:04:07;;;;;;;1.50;0.70;;;;;;;9.84;100.00;100091.96;104342;1268;59751;-47
2023/05/29 04:06:38;;;;;;;1.80;0.90;;;;;;;9.97;100.00;100093.80;105058;1270;59714;-47
2023/05/29 04:09:08;;;;;;;0.90;0.60;;;;;;;10.10;100.00;100090.73;104363;1264;72551;-47
2023/05/29 04:11:36;;;;;;;2.00;0.80;;;;;;;10.24;100.00;100089.13;104394;1267;68089;-47
2023/05/29 04:14:03;;;;;;;1.80;0.70;;;;;;;10.38;100.00;100092.47;104326;1265;74204;-48
2023/05/29 04:16:31;;;;;;;2.00;0.40;;;;;;;10.52;100.00;100097.41;104523;1266;61771;-47
2023/05/29 04:19:00;;;;;;;1.80;0.50;;;;;;;10.68;100.00;100094.98;104487;1270;60113;-47
2023/05/29 04:21:27;;;;;;;3.10;0.60;;;;;;;10.85;100.00;100092.94;104988;1267;73370;-48
2023/05/29 04:23:55;;;;;;;1.60;0.50;;;;;;;11.06;100.00;100096.52;104498;1267;67558;-47
2023/05/29 04:26:25;;;;;;;2.70;0.50;;;;;;;11.25;100.00;100103.36;104363;1268;72073;-47
2023/05/29 04:28:57;;;;;;;1.80;0.40;;;;;;;11.44;100.00;100103.95;104465;1270;60254;-48
2023/05/29 04:31:25;;;;;;;1.90;0.60;;;;;;;11.62;100.00;100104.86;104483;1270;59749;-47
2023/05/29 04:33:56;;;;;;;0.70;0.40;;;;;;;11.82;100.00;100103.98;104607;1267;72138;-46
2023/05/29 04:36:27;;;;;;;0.80;0.40;;;;;;;12.01;100.00;100101.07;104449;1271;66889;-47
2023/05/29 04:39:06;;;;;;;1.00;0.40;;;;;;;12.21;100.00;100104.60;104372;1267;72589;-47
2023/05/29 04:41:35;;;;;;;1.80;0.50;;;;;;;12.36;100.00;100102.92;105542;1267;59675;-47
2023/05/29 04:44:04;;;;;;;1.80;0.50;;;;;;;12.52;100.00;100108.23;105085;1265;60843;-47
2023/05/29 04:46:38;;;;;;;0.80;0.40;;;;;;;12.66;100.00;100109.30;104338;1266;74527;-46
2023/05/29 04:49:06;;;;;;;0.90;0.60;;;;;;;12.80;100.00;100111.27;108279;1266;66069;-45
2023/05/29 04:51:33;;;;;;;5.60;1.00;;;;;;;12.94;100.00;100109.86;108729;1257;70645;-46
2023/05/29 04:54:01;;;;;;;1.50;0.50;;;;;;;13.08;100.00;100114.34;108692;1257;60691;-46
2023/05/29 04:56:28;;;;;;;0.90;0.50;;;;;;;13.23;100.00;100114.83;108723;1257;60278;-45
2023/05/29 04:58:55;;;;;;;3.20;0.50;;;;;;;13.37;100.00;100110.64;108657;1257;72663;-46
2023/05/29 05:01:23;;;;;;;1.30;0.50;;;;;;;13.50;100.00;100114.23;108657;1257;66325;-45
2023/05/29 05:03:55;;;;;;;1.30;0.40;;;;;;;13.65;100.00;100115.04;108907;1256;71062;-46
2023/05/29 05:06:25;;;;;;;4.80;0.50;;;;;;;13.82;100.00;100115.89;108803;1257;61742;-46
2023/05/29 05:08:53;;;;;;;1.50;0.50;;;;;;;13.96;100.00;100113.81;108894;1257;59627;-46
2023/05/29 05:11:22;;;;;;;2.80;0.50;;;;;;;14.11;100.00;100115.17;108821;1257;71593;-48
2023/05/29 05:13:49;;;;;;;0.90;0.40;;;;;;;14.25;100.00;100116.52;108809;1260;65730;-47
2023/05/29 05:16:18;;;;;;;0.90;0.40;;;;;;;14.38;100.00;100111.59;108840;1257;70919;-47
2023/05/29 05:18:45;;;;;;;0.70;0.50;;;;;;;14.51;100.00;100111.80;108775;1258;62390;-46
2023/05/29 05:21:13;;;;;;;0.70;0.60;;;;;;;14.64;100.00;100117.67;108836;1257;59543;-47
2023/05/29 05:23:40;;;;;;;2.10;0.50;;;;;;;14.77;100.00;100117.23;108759;1257;71091;-47
2023/05/29 05:26:25;;;;;;;2.80;0.30;;;;;;;14.93;100.00;100114.86;108785;1257;66152;-47
2023/05/29 05:28:54;;;;;;;0.90;0.30;;;;;;;15.06;100.00;100118.73;108830;1257;72646;-46
2023/05/29 05:31:23;;;;;;;1.90;0.50;;;;;;;15.21;100.00;100119.67;108776;1260;59062;-47
2023/05/29 05:33:50;;;;;;;1.00;0.50;;;;;;;15.33;100.00;100119.23;108739;1260;58254;-46
2023/05/29 05:36:18;;;;;;;1.50;0.30;;;;;;;15.45;100.00;100122.29;105909;1265;72820;-47
2023/05/29 05:38:45;;;;;;;1.20;0.30;;;;;;;15.57;100.00;100126.09;105206;1260;70120;-46
2023/05/29 05:41:13;;;;;;;2.20;0.20;;;;;;;15.68;100.00;100125.38;105988;1257;71934;-46
2023/05/29 05:43:41;;;;;;;1.80;0.30;;;;;;;15.80;100.00;100128.23;105751;1260;59747;-46
2023/05/29 05:46:31;;;;;;;2.30;0.40;;;;;;;15.93;100.00;100131.41;105109;1260;60177;-46
2023/05/29 05:49:00;;;;;;;3.10;0.20;;;;;;;16.01;100.00;100135.39;105146;1265;73919;-47
2023/05/29 05:51:28;;;;;;;1.30;0.40;;;;;;;16.09;100.00;100135.42;105203;1260;67687;-48
2023/05/29 05:53:55;;;;;;;2.00;0.20;;;;;;;16.16;100.00;100140.38;105028;1257;75410;-47
2023/05/29 05:56:23;;;;;;;5.10;0.40;;;;;;;16.22;100.00;100142.17;105233;1260;59640;-48
2023/05/29 05:58:50;;;;;;;0.70;0.30;;;;;;;16.28;100.00;100147.55;104861;1258;60194;-48
2023/05/29 06:01:20;;;;;;;1.40;0.30;;;;;;;16.35;100.00;100148.40;105129;1265;73162;-48
2023/05/29 06:03:47;;;;;;;1.50;0.30;;;;;;;16.36;100.00;100146.49;105003;1259;67706;-47
2023/05/29 06:06:16;;;;;;;2.10;0.30;;;;;;;16.38;100.00;100143.82;104927;1264;72851;-47
2023/05/29 06:08:45;;;;;;;1.30;0.30;;;;;;;16.45;100.00;100147.35;105018;1263;60002;-48
2023/05/29 06:11:13;;;;;;;1.60;0.30;;;;;;;16.50;100.00;100143.20;105047;1257;59647;-46
2023/05/29 06:13:43;;;;;;;1.50;0.30;;;;;;;16.55;100.00;100142.88;105256;1261;73136;-48
2023/05/29 06:16:16;;;;;;;0.60;0.30;;;;;;;16.60;100.00;100144.14;105240;1260;69054;-47
2023/05/29 06:18:44;;;;;;;0.40;0.30;;;;;;;16.66;100.00;100144.35;104816;1260;72515;-47
2023/05/29 06:21:12;;;;;;;0.90;0.20;;;;;;;16.73;100.00;100147.30;104517;1260;61684;-47
2023/05/29 06:23:44;;;;;;;2.10;0.30;;;;;;;16.80;100.00;100142.86;104719;1264;62423;-47
2023/05/29 06:26:12;;;;;;;1.60;0.40;;;;;;;16.83;100.00;100142.86;104940;1260;72186;-48
2023/05/29 06:28:39;;;;;;;2.20;0.30;;;;;;;16.86;100.00;100143.89;105095;1263;69453;-47
2023/05/29 06:31:07;;;;;;;2.10;0.20;;;;;;;16.89;100.00;100140.02;105014;1260;71588;-48
2023/05/29 06:33:36;;;;;;;0.40;0.30;;;;;;;16.94;100.00;100139.13;104962;1259;60168;-47
2023/05/29 06:36:05;;;;;;;0.40;0.20;;;;;;;17.03;100.00;100140.73;105083;1264;59632;-48
2023/05/29 06:38:33;;;;;;;0.30;0.20;;;;;;;17.12;100.00;100135.05;106645;1259;73029;-48
2023/05/29 06:41:00;;;;;;;0.90;0.30;;;;;;;17.21;100.00;100136.04;105443;1260;68209;-48
2023/05/29 06:43:28;;;;;;;1.30;0.30;;;;;;;17.31;100.00;100136.24;105129;1263;71529;-48
2023/05/29 06:45:57;;;;;;;3.00;0.30;;;;;;;17.40;100.00;100133.21;105155;1265;60673;-47
2023/05/29 06:48:25;;;;;;;0.30;0.20;;;;;;;17.48;100.00;100131.45;105262;1260;60494;-48
2023/05/29 06:50:53;;;;;;;0.30;0.20;;;;;;;17.55;100.00;100133.43;105224;1260;74116;-46
2023/05/29 06:53:41;;;;;;;1.60;0.30;;;;;;;17.64;100.00;100133.19;104882;1262;65773;-47
2023/05/29 06:56:10;;;;;;;0.70;0.30;;;;;;;17.72;100.00;100135.48;106675;1260;72769;-48
2023/05/29 06:58:37;;;;;;;0.70;0.30;;;;;;;17.80;100.00;100132.55;105387;1262;60501;-48
2023/05/29 07:01:05;;;;;;;0.70;0.20;;;;;;;17.87;100.00;100132.59;105087;1260;60562;-48
2023/05/29 07:03:55;;;;;;;0.70;0.30;;;;;;;17.92;100.00;100126.23;105087;1258;75208;-49
2023/05/29 07:06:22;;;;;;;1.20;0.30;;;;;;;17.94;100.00;100120.45;104934;1259;70322;-47
2023/05/29 07:08:49;;;;;;;0.30;0.20;;;;;;;17.96;100.00;100119.94;104970;1260;71751;-47
2023/05/29 07:11:17;;;;;;;1.30;0.20;;;;;;;17.96;100.00;100117.77;104970;1258;60508;-47
2023/05/29 07:13:44;;;;;;;2.30;0.30;;;;;;;17.99;100.00;100118.50;104998;1260;60518;-47
2023/05/29 07:16:13;;;;;;;0.60;0.20;;;;;;;18.04;100.00;100118.08;105362;1263;73704;-47
2023/05/29 07:19:13;;;;;;;0.60;0.30;;;;;;;18.15;100.00;100118.75;105080;1260;66509;-47
2023/05/29 07:21:48;;;;;;;1.70;0.20;;;;;;;18.21;100.00;100116.65;104434;1263;73586;-48
2023/05/29 07:24:17;;;;;;;1.50;0.30;;;;;;;18.23;100.00;100114.32;104711;1260;60511;-49
2023/05/29 07:26:44;;;;;;;2.00;0.30;;;;;;;18.27;100.00;100116.21;105063;1262;61122;-48
2023/05/29 07:29:13;;;;;;;0.30;0.20;;;;;;;18.36;100.00;100120.48;105208;1258;73653;-47
2023/05/29 07:31:41;;;;;;;0.20;0.20;;;;;;;18.42;100.00;100119.30;105633;1260;67606;-48
2023/05/29 07:34:08;;;;;;;2.60;0.30;;;;;;;18.48;100.00;100120.63;106902;1258;72958;-48
2023/05/29 07:36:36;;;;;;;1.50;0.20;;;;;;;18.57;100.00;100121.08;105300;1259;60469;-48
2023/05/29 07:39:07;;;;;;;3.90;0.30;;;;;;;18.68;100.00;100123.52;105357;1257;61439;-48
2023/05/29 07:41:35;;;;;;;0.50;0.40;;;;;;;18.76;100.00;100123.60;105293;1260;73807;-48
2023/05/29 07:44:02;;;;;;;0.50;0.30;;;;;;;18.84;100.00;100117.86;105390;1260;70210;-48
2023/05/29 07:46:30;;;;;;;0.60;0.30;;;;;;;18.95;100.00;100114.90;108822;1258;72172;-48
2023/05/29 07:49:13;;;;;;;0.40;0.30;;;;;;;19.04;100.00;100118.71;105235;1257;60469;-49
2023/05/29 07:51:41;;;;;;;0.50;0.40;;;;;;;19.09;100.00;100121.43;104853;1264;60420;-48
2023/05/29 07:54:09;;;;;;;1.80;0.40;;;;;;;19.15;100.00;100120.27;108776;1256;73068;-48
2023/05/29 07:56:37;;;;;;;0.70;0.30;;;;;;;19.19;100.00;100119.71;108739;1257;66003;-49
2023/05/29 07:59:05;;;;;;;0.20;0.20;;;;;;;19.21;100.00;100117.41;108550;1257;71193;-50
2023/05/29 08:01:33;;;;;;;1.90;0.30;;;;;;;19.17;100.00;100118.63;108678;1257;60739;-49
2023/05/29 08:04:01;;;;;;;1.30;0.30;;;;;;;19.15;100.00;100118.61;108811;1257;59630;-50
2023/05/29 08:06:32;;;;;;;1.50;0.30;;;;;;;19.19;100.00;100115.00;108687;1257;73260;-49
2023/05/29 08:09:00;;;;;;;0.50;0.40;;;;;;;19.27;100.00;100113.11;108660;1257;67717;-51
2023/05/29 08:11:28;;;;;;;3.10;0.20;;;;;;;19.38;100.00;100111.88;108722;1257;74075;-49
2023/05/29 08:13:55;;;;;;;0.40;0.20;;;;;;;19.49;100.00;100107.20;108779;1260;59006;-49
2023/05/29 08:16:23;;;;;;;0.30;0.30;;;;;;;19.60;100.00;100103.73;108662;1257;59135;-49
2023/05/29 08:18:50;;;;;;;0.60;0.30;;;;;;;19.69;100.00;100103.59;108900;1257;74615;-49
2023/05/29 08:21:18;;;;;;;1.30;0.30;;;;;;;19.71;100.00;100095.98;108778;1257;67402;-49
2023/05/29 08:23:45;;;;;;;0.50;0.30;;;;;;;19.70;100.00;100094.96;108716;1262;72763;-50
2023/05/29 08:26:13;;;;;;;3.00;0.80;;;;;;;19.74;100.00;100091.33;107347;1262;60228;-50
2023/05/29 08:28:40;;;;;;;3.80;0.40;;;;;;;19.79;100.00;100086.25;104470;1260;62171;-48
2023/05/29 08:31:09;;;;;;;1.40;0.40;;;;;;;19.83;100.00;100085.47;105623;1258;74978;-49
2023/05/29 08:33:36;;;;;;;1.60;0.30;;;;;;;19.91;100.00;100083.89;108473;1257;67920;-48
2023/05/29 08:36:04;;;;;;;0.90;0.30;;;;;;;19.98;100.00;100086.78;104973;1260;74041;-47
2023/05/29 08:38:31;;;;;;;2.30;0.40;;;;;;;20.06;100.00;100088.36;104746;1260;60536;-48
2023/05/29 08:40:59;;;;;;;0.40;0.30;;;;;;;20.10;100.00;100083.24;105035;1257;60527;-47
2023/05/29 08:43:30;;;;;;;2.50;0.30;;;;;;;20.14;100.00;100085.16;104854;1257;74113;-48
2023/05/29 08:46:01;;;;;;;2.40;0.40;;;;;;;20.17;100.00;100084.55;105332;1257;67795;-49
2023/05/29 08:48:30;;;;;;;0.30;0.30;;;;;;;20.13;100.00;100080.11;108211;1259;72138;-49
2023/05/29 08:50:58;;;;;;;1.10;0.30;;;;;;;20.17;100.00;100072.17;105139;1262;60451;-50
2023/05/29 08:53:25;;;;;;;2.90;0.30;;;;;;;20.24;100.00;100071.33;105883;1260;60354;-48
2023/05/29 08:55:53;;;;;;;2.30;0.30;;;;;;;20.31;100.00;100070.21;105129;1257;74399;-48
2023/05/29 08:58:21;;;;;;;4.90;0.50;;;;;;;20.36;100.00;100070.37;105184;1263;66149;-49
2023/05/29 09:00:49;;;;;;;0.30;0.30;;;;;;;20.39;100.00;100068.70;105516;1259;71698;-50
2023/05/29 09:03:17;;;;;;;3.10;0.40;;;;;;;20.43;100.00;100065.30;105087;1263;61669;-49
2023/05/29 09:05:45;;;;;;;3.80;0.30;;;;;;;20.41;100.00;100059.02;105195;1263;60432;-49
2023/05/29 09:08:13;;;;;;;0.50;0.40;;;;;;;20.39;100.00;100059.91;105204;1257;73523;-49
2023/05/29 09:10:44;;;;;;;0.50;0.30;;;;;;;20.39;100.00;100056.60;104933;1262;68063;-50
2023/05/29 09:13:13;;;;;;;0.60;0.40;;;;;;;20.43;100.00;100054.11;106522;1262;73495;-49
2023/05/29 09:15:42;;;;;;;0.40;0.30;;;;;;;20.48;100.00;100056.98;105119;1257;60498;-49
2023/05/29 09:18:11;;;;;;;0.70;0.40;;;;;;;20.54;100.00;100056.27;105382;1263;60736;-48
2023/05/29 09:20:39;;;;;;;0.40;0.30;;;;;;;20.60;100.00;100054.70;105209;1262;72321;-48
2023/05/29 09:23:07;;;;;;;0.30;0.30;;;;;;;20.63;100.00;100050.80;105317;1257;67538;-49
2023/05/29 09:25:44;;;;;;;1.70;0.30;;;;;;;20.63;100.00;100047.81;107510;1259;72017;-49
2023/05/29 09:28:11;;;;;;;0.70;0.30;;;;;;;20.63;100.00;100045.83;104462;1257;60410;-49
2023/05/29 09:30:48;;;;;;;2.80;0.30;;;;;;;20.68;100.00;100038.63;105103;1258;60776;-49
2023/05/29 09:33:30;;;;;;;1.20;0.30;;;;;;;20.74;100.00;100032.16;105149;1262;75793;-49
2023/05/29 09:36:00;;;;;;;0.50;0.30;;;;;;;20.79;100.00;100028.09;105210;1262;67667;-48
2023/05/29 10:17:26;;;;;;;1.80;0.30;;;;;;;20.96;100.00;99988.10;105050;1257;69183;-48
2023/05/29 10:19:53;;;;;;;0.40;0.30;;;;;;;21.00;100.00;99985.69;108732;1258;75395;-50
2023/05/29 10:22:21;;;;;;;0.40;0.30;;;;;;;21.07;100.00;99980.94;105245;1263;62257;-48
2023/05/29 10:24:48;;;;;;;0.60;0.30;;;;;;;21.12;100.00;99984.80;105169;1264;61150;-50
2023/05/29 10:27:16;;;;;;;0.50;0.20;;;;;;;21.09;100.00;99978.30;104972;1262;75967;-48
2023/05/29 10:29:53;;;;;;;1.00;0.30;;;;;;;21.03;100.00;99978.13;105007;1260;69703;-47
2023/05/29 10:32:41;;;;;;;0.80;0.30;;;;;;;21.04;100.00;99978.80;104862;1257;74908;-48
2023/05/29 10:35:13;;;;;;;0.80;0.30;;;;;;;21.08;100.00;99975.70;104735;1262;62668;-49
2023/05/29 10:37:50;;;;;;;0.50;0.30;;;;;;;21.04;100.00;99970.02;104820;1257;61042;-49
2023/05/29 10:40:23;;;;;;;6.60;0.30;;;;;;;21.01;100.00;99966.10;106916;1257;74149;-50
2023/05/29 10:42:54;;;;;;;1.30;0.30;;;;;;;21.01;100.00;99967.19;105044;1263;70101;-49
2023/05/29 10:45:28;;;;;;;0.80;0.30;;;;;;;21.03;100.00;99961.59;104917;1260;73504;-48
2023/05/29 10:47:56;;;;;;;1.00;0.30;;;;;;;21.09;100.00;99969.75;104678;1257;61178;-47
2023/05/29 10:50:36;;;;;;;0.60;0.40;;;;;;;21.19;100.00;99965.42;108777;1257;61571;-50
2023/05/29 10:53:10;;;;;;;0.70;0.30;;;;;;;21.29;100.00;99966.95;104806;1263;76247;-47
2023/05/29 10:55:38;;;;;;;1.30;0.30;;;;;;;21.35;100.00;99964.73;105865;1257;69173;-48
2023/05/29 10:58:14;;;;;;;1.10;0.30;;;;;;;21.43;100.00;99961.28;104866;1257;73836;-48
2023/05/29 11:00:42;;;;;;;0.50;0.20;;;;;;;21.52;100.00;99963.42;108665;1258;61927;-49
2023/05/29 11:03:10;;;;;;;2.20;0.30;;;;;;;21.59;100.00;99951.41;108644;1257;62293;-48
2023/05/29 11:05:58;;;;;;;0.30;0.20;;;;;;;21.66;100.00;99952.65;108693;1260;75233;-49
2023/05/29 11:08:56;;;;;;;1.70;0.20;;;;;;;21.73;100.00;99952.55;108725;1257;69947;-49
2023/05/29 11:11:26;;;;;;;0.70;0.30;;;;;;;21.80;100.00;99952.05;108723;1257;74927;-49
2023/05/29 11:13:56;;;;;;;0.30;0.30;;;;;;;21.85;100.00;99951.72;108760;1259;62210;-50
2023/05/29 11:16:29;;;;;;;0.30;0.30;;;;;;;21.88;100.00;99950.91;108702;1257;62666;-48
2023/05/29 11:18:57;;;;;;;2.20;0.30;;;;;;;21.88;100.00;99937.78;108808;1257;76218;-51
2023/05/29 11:21:37;;;;;;;1.40;0.20;;;;;;;21.87;100.00;99938.91;108728;1257;71169;-50
2023/05/29 11:24:06;;;;;;;2.70;0.30;;;;;;;21.78;100.00;99932.63;108699;1260;74636;-49
2023/05/29 11:26:37;;;;;;;1.60;0.30;;;;;;;21.75;100.00;99931.69;108839;1257;60704;-51
2023/05/29 11:29:06;;;;;;;1.60;0.30;;;;;;;21.68;100.00;99927.97;108762;1262;62087;-49
2023/05/29 11:31:34;;;;;;;2.00;0.30;;;;;;;21.63;100.00;99924.03;108736;1259;76565;-50
2023/05/29 11:34:04;;;;;;;1.30;0.30;;;;;;;21.65;100.00;99924.39;108723;1257;70021;-50
2023/05/29 11:36:32;;;;;;;1.00;0.50;;;;;;;21.71;100.00;99922.38;108761;1257;75743;-49
2023/05/29 11:39:01;;;;;;;1.50;0.30;;;;;;;21.76;100.00;99920.96;108583;1260;61217;-49
2023/05/29 11:41:28;;;;;;;1.80;0.20;;;;;;;21.81;100.00;99914.52;107045;1257;61989;-48
2023/05/29 11:44:01;;;;;;;1.40;0.30;;;;;;;21.84;100.00;99908.90;104723;1257;75028;-46
2023/05/29 11:46:32;;;;;;;1.60;0.30;;;;;;;21.86;100.00;99905.52;104866;1257;70330;-48
2023/05/29 11:49:00;;;;;;;1.60;0.30;;;;;;;21.86;100.00;99910.16;107248;1257;75673;-48
2023/05/29 11:51:27;;;;;;;0.50;0.20;;;;;;;21.89;100.00;99906.23;104900;1258;62294;-49
2023/05/29 11:53:58;;;;;;;0.40;0.30;;;;;;;21.92;100.00;99907.48;104671;1264;60576;-50
2023/05/29 11:56:29;;;;;;;1.80;0.30;;;;;;;21.93;100.00;99904.05;104926;1257;77568;-49
2023/05/29 11:58:59;;;;;;;0.50;0.20;;;;;;;22.00;100.00;99900.35;104927;1265;71639;-50
2023/05/29 12:01:28;;;;;;;0.30;0.30;;;;;;;22.08;100.00;99900.02;105083;1257;74969;-50
2023/05/29 12:03:56;;;;;;;1.20;0.30;;;;;;;22.14;100.00;99902.53;105346;1259;61207;-49
2023/05/29 12:06:34;;;;;;;0.80;0.30;;;;;;;22.14;100.00;99895.91;105184;1257;63951;-52